Latest Weather Observations for Lochington

IDQ60801

Issued at 11:32 pm EST Friday 29 April 2016 (issued every 30 minutes, with the page automatically refreshed every 10 minutes)

About weather observations | Map of weather stations | Latest weather observations for QLD | Other Formats
Station Details ID: 035139 Name: LOCHINGTON Lat: -23.94 Lon: 147.53 Height: 267.19 m
Data from the previous 72 hours. | See also: Recent months at Lochington
Date/Time
EST
Temp
°C
App
Temp
°C
Dew
Point
Rel
Hum
%
Delta-T
°C
Wind Press
QNH
hPa
Press
MSL
hPa
Rain
since 9 am
mm
Dir
 
Spd
km/h
Gust
km/h
Spd
kts
Gust
kts
29/11:30pm 21.4 22.1 15.7 70 3.4 NE 6 9 3 5 1019.8 1018.6 0.0
29/11:00pm 21.0 21.5 15.5 71 3.3 ENE 7 9 4 5 1019.9 1018.7 0.0
29/10:30pm 20.7 22.7 15.9 74 2.9 CALM 0 0 0 0 1020.1 1018.8 0.0
29/10:00pm 20.8 22.6 15.6 72 3.1 CALM 0 0 0 0 1019.8 1018.6 0.0
29/09:30pm 20.3 21.8 14.7 70 3.3 CALM 0 0 0 0 1019.6 1018.4 0.0
29/09:00pm 21.3 23.0 15.2 68 3.6 CALM 0 0 0 0 1019.4 1018.2 0.0
29/08:30pm 22.9 24.4 15.7 64 4.4 NNE 2 4 1 2 1019.1 1017.9 0.0
29/08:00pm 23.0 23.7 15.6 63 4.5 NNE 6 7 3 4 1018.9 1017.7 0.0
29/07:30pm 23.9 24.6 15.7 60 5.0 NNE 6 7 3 4 1018.5 1017.3 0.0
29/07:00pm 24.3 24.5 15.8 59 5.2 NNE 9 9 5 5 1018.1 1016.9 0.0
29/06:30pm 25.2 25.8 15.8 56 5.8 NNE 7 9 4 5 1017.9 1016.7 0.0
29/06:00pm 26.1 26.7 15.8 53 6.3 NNE 7 9 4 5 1017.5 1016.3 0.0
29/05:30pm 27.5 27.0 15.8 48 7.3 NNE 13 17 7 9 1017.3 1016.1 0.0
29/05:00pm 28.4 27.8 15.7 46 7.9 NNE 13 17 7 9 1017.1 1015.9 0.0
29/04:30pm 29.2 28.6 15.7 44 8.4 NNE 13 22 7 12 1016.7 1015.4 0.0
29/04:00pm 29.5 28.5 15.6 43 8.6 NE 15 20 8 11 1016.6 1015.3 0.0
29/03:30pm 29.9 28.4 15.2 41 9.1 NE 17 28 9 15 1016.5 1015.2 0.0
29/03:00pm 29.6 28.0 15.0 41 9.0 NE 17 26 9 14 1016.5 1015.2 0.0
29/02:30pm 29.6 27.7 15.3 41 8.9 NNE 19 30 10 16 1016.5 1015.2 0.0
29/02:00pm 29.1 28.3 16.0 45 8.2 NE 15 26 8 14 1016.8 1015.5 0.0
29/01:30pm 27.9 27.2 16.5 50 7.2 ENE 15 22 8 12 1017.3 1016.1 0.0
29/01:00pm 28.2 27.5 16.5 49 7.3 ENE 15 26 8 14 1017.8 1016.6 0.0
29/12:30pm 27.2 26.5 16.5 52 6.7 NE 15 24 8 13 1018.4 1017.2 0.0
29/12:00pm 27.1 26.9 16.7 53 6.5 NE 13 22 7 12 1019.1 1017.9 0.0
29/11:30am 26.8 26.5 16.4 53 6.5 NE 13 30 7 16 1019.7 1018.5 0.0
29/11:00am 25.6 24.8 16.2 56 5.8 E 15 30 8 16 1020.5 1019.3 0.0
29/10:30am 25.7 26.2 17.4 60 5.2 NE 11 20 6 11 1021.4 1020.2 0.0
29/10:00am 23.5 23.1 16.3 64 4.4 ENE 13 20 7 11 1021.7 1020.5 0.0
29/09:30am 23.6 23.7 16.4 64 4.4 NE 11 17 6 9 1021.9 1020.7 0.0
29/09:00am 22.6 23.5 16.2 67 3.9 ESE 6 9 3 5 1022.0 1020.8 0.0
29/08:30am 21.8 22.9 16.5 72 3.3 E 6 9 3 5 1021.8 1020.6 0.0
29/08:00am 21.2 22.5 17.0 77 2.6 NE 6 9 3 5 1021.4 1020.2 0.0
29/07:30am 20.5 21.8 17.1 81 2.1 NNE 6 9 3 5 1021.1 1019.9 0.0
29/07:00am 18.4 20.8 16.9 91 0.9 CALM 0 0 0 0 1020.8 1019.6 0.0
29/06:30am 17.4 19.3 15.7 90 1.0 CALM 0 0 0 0 1020.6 1019.4 0.0
29/06:00am 17.5 19.4 15.7 89 1.1 CALM 0 0 0 0 1020.3 1019.1 0.0
29/05:30am 17.9 19.6 16.1 89 1.1 NNE 2 4 1 2 1019.8 1018.6 0.0
29/05:00am 18.8 19.9 16.6 87 1.3 NE 6 6 3 3 1019.6 1018.4 0.0
29/04:30am 18.9 19.9 16.3 85 1.6 NE 6 7 3 4 1019.3 1018.1 0.0
29/04:00am 19.4 20.4 16.8 85 1.6 NE 7 9 4 5 1019.6 1018.4 0.0
29/03:30am 19.5 20.8 17.1 86 1.5 NE 6 7 3 4 1019.6 1018.4 0.0
29/03:00am 19.6 20.9 17.0 85 1.6 NNE 6 9 3 5 1019.5 1018.3 0.0
29/02:30am 19.8 21.1 17.0 84 1.7 NNE 6 7 3 4 1019.6 1018.4 0.0
29/02:00am 20.5 21.9 17.3 82 2.0 NE 6 7 3 4 1020.1 1018.8 0.0
29/01:30am 20.9 22.3 17.3 80 2.2 NNE 6 7 3 4 1020.1 1018.8 0.0
29/01:00am 21.1 22.3 17.3 79 2.4 NNE 7 9 4 5 1020.3 1019.1 0.0
29/12:30am 21.4 22.8 17.4 78 2.5 NE 6 9 3 5 1020.5 1019.3 0.0
29/12:00am 21.6 22.8 17.4 77 2.6 NE 7 11 4 6 1020.5 1019.3 0.0
 
Date/Time
EST
Temp
°C
App
Temp
°C
Dew
Point
Rel
Hum
%
Delta-T
°C
Wind Press
QNH
hPa
Press
MSL
hPa
Rain
since 9 am
mm
Dir
 
Spd
km/h
Gust
km/h
Spd
kts
Gust
kts
28/11:30pm 21.7 22.5 17.3 76 2.7 NE 9 15 5 8 1020.5 1019.3 0.0
28/11:00pm 21.8 22.4 17.8 78 2.5 NE 11 17 6 9 1020.6 1019.4 0.0
28/10:30pm 21.5 22.3 18.1 81 2.1 NE 11 17 6 9 1020.6 1019.4 0.0
28/10:00pm 21.6 22.5 18.4 82 2.0 NE 11 17 6 9 1020.5 1019.3 0.0
28/09:30pm 21.3 23.1 18.7 85 1.6 ENE 7 9 4 5 1020.5 1019.3 0.0
28/09:00pm 21.3 23.5 19.2 88 1.3 NE 6 11 3 6 1020.3 1019.1 0.0
28/08:30pm 21.3 23.6 19.4 89 1.2 NE 6 7 3 4 1020.2 1018.9 0.0
28/08:00pm 21.5 22.4 19.2 87 1.5 NE 13 22 7 12 1020.2 1018.9 0.0
28/07:30pm 23.3 23.3 18.2 73 3.2 NE 15 22 8 12 1019.7 1018.5 0.0
28/07:00pm 24.1 24.7 17.8 68 4.0 NNE 11 19 6 10 1019.4 1018.2 0.0
28/06:30pm 24.6 25.2 17.6 65 4.4 NE 11 22 6 12 1018.9 1017.7 0.0
28/06:00pm 24.3 25.6 17.5 66 4.3 NE 7 13 4 7 1018.6 1017.4 0.0
28/05:30pm 25.1 25.8 17.1 61 5.0 ENE 9 13 5 7 1018.3 1017.1 0.0
28/05:00pm 27.0 25.8 16.0 51 6.8 E 17 28 9 15 1017.8 1016.6 0.0
28/04:30pm 27.3 26.3 15.7 49 7.2 ENE 15 24 8 13 1017.6 1016.4 0.0
28/04:00pm 27.4 27.0 16.1 50 7.0 ENE 13 20 7 11 1017.6 1016.4 0.0
28/03:30pm 27.4 27.1 16.4 51 6.9 NE 13 24 7 13 1017.8 1016.6 0.0
28/03:00pm 28.4 29.0 16.7 49 7.4 ENE 9 17 5 9 1017.8 1016.6 0.0
28/02:30pm 27.3 28.1 16.3 51 6.9 E 7 17 4 9 1018.1 1016.9 0.0
28/02:00pm 26.3 26.7 16.3 54 6.2 ENE 9 15 5 8 1018.2 1017.0 0.0
28/01:30pm 26.4 26.4 16.3 53 6.3 E 11 20 6 11 1018.6 1017.4 0.0
28/01:00pm 26.0 25.6 16.3 55 6.0 E 13 22 7 12 1019.0 1017.8 0.0
28/12:30pm 25.9 25.0 15.9 54 6.2 E 15 20 8 11 1019.2 1018.0 0.0
28/12:00pm 25.4 24.4 15.7 55 5.9 E 15 24 8 13 1019.7 1018.5 0.0
28/11:30am 25.1 23.8 15.7 56 5.8 E 17 28 9 15 1020.2 1018.9 0.0
28/11:00am 25.7 24.6 16.3 56 5.8 E 17 28 9 15 1020.7 1019.5 0.0
28/10:30am 24.5 22.6 15.7 58 5.4 E 20 32 11 17 1021.0 1019.8 0.0
28/10:00am 23.9 22.6 15.7 60 5.0 E 17 28 9 15 1021.0 1019.8 0.0
28/09:30am 24.0 22.8 15.0 57 5.4 ESE 15 24 8 13 1021.2 1020.0 0.0
28/09:00am 22.6 21.5 15.2 63 4.4 ESE 15 20 8 11 1021.2 1020.0 0.0
28/08:30am 21.4 20.4 14.6 65 4.0 ESE 13 19 7 10 1021.0 1019.8 0.0
28/08:00am 20.6 19.5 14.3 67 3.7 ESE 13 19 7 10 1020.7 1019.5 0.0
28/07:30am 19.8 19.3 13.7 68 3.5 ESE 9 15 5 8 1020.3 1019.1 0.0
28/07:00am 18.0 17.8 13.5 75 2.6 ESE 7 9 4 5 1019.8 1018.6 0.0
28/06:30am 17.3 16.5 12.8 75 2.5 E 9 11 5 6 1019.5 1018.3 0.0
28/06:00am 17.5 16.5 12.4 72 2.9 E 9 13 5 7 1019.3 1018.1 0.0
28/05:30am 18.4 17.7 13.1 71 3.0 ESE 9 15 5 8 1019.2 1018.0 0.0
28/05:00am 17.4 17.1 12.7 74 2.6 ESE 6 6 3 3 1019.0 1017.8 0.0
28/04:30am 18.3 17.9 13.0 71 3.0 E 7 9 4 5 1018.9 1017.7 0.0
28/04:00am 18.3 19.0 14.4 78 2.3 E 4 6 2 3 1018.8 1017.6 0.0
28/03:30am 18.5 19.0 14.0 75 2.6 SE 4 4 2 2 1018.5 1017.3 0.0
28/03:00am 18.9 19.2 14.4 75 2.6 ESE 6 7 3 4 1018.5 1017.3 0.0
28/02:30am 19.3 19.9 14.3 73 2.9 E 4 4 2 2 1018.7 1017.5 0.0
28/02:00am 20.5 21.0 15.1 71 3.2 ENE 6 7 3 4 1018.7 1017.5 0.0
28/01:30am 21.1 21.4 15.0 68 3.6 ENE 7 11 4 6 1018.7 1017.5 0.0
28/01:00am 21.6 21.4 14.7 65 4.1 ENE 9 11 5 6 1018.9 1017.7 0.0
28/12:30am 21.9 22.0 14.5 63 4.4 ENE 7 11 4 6 1019.0 1017.8 0.0
28/12:00am 22.5 22.2 14.4 60 4.8 ENE 9 13 5 7 1019.2 1018.0 0.0
 
Date/Time
EST
Temp
°C
App
Temp
°C
Dew
Point
Rel
Hum
%
Delta-T
°C
Wind Press
QNH
hPa
Press
MSL
hPa
Rain
since 9 am
mm
Dir
 
Spd
km/h
Gust
km/h
Spd
kts
Gust
kts
27/11:30pm 22.4 22.1 13.2 56 5.4 ENE 7 11 4 6 1019.1 1017.9 0.0
27/11:00pm 22.7 21.6 12.0 50 6.1 ENE 9 9 5 5 1019.3 1018.1 0.0
27/10:30pm 23.2 22.1 10.6 45 7.0 ENE 7 11 4 6 1019.3 1018.1 0.0
27/10:00pm 23.5 22.0 10.6 44 7.2 NE 9 15 5 8 1019.3 1018.1 0.0
27/09:30pm 23.9 23.0 10.6 43 7.5 ESE 6 7 3 4 1019.0 1017.8 0.0
27/09:00pm 24.3 22.7 10.2 41 7.9 ESE 9 11 5 6 1019.1 1017.9 0.0
27/08:30pm 23.8 23.7 10.8 44 7.3 ESE 2 6 1 3 1019.0 1017.8 0.0
27/08:00pm 22.8 22.9 10.3 45 6.9 CALM 0 0 0 0 1018.8 1017.6 0.0
27/07:30pm 24.2 24.0 10.5 42 7.7 E 2 2 1 1 1018.6 1017.4 0.0
27/07:00pm 24.3 23.6 10.2 41 7.9 NE 4 4 2 2 1018.2 1017.0 0.0
27/06:30pm 24.9 23.6 10.0 39 8.3 NE 7 9 4 5 1017.9 1016.7 0.0
27/06:00pm 26.1 24.4 9.9 36 9.1 ENE 9 11 5 6 1017.6 1016.4 0.0
27/05:30pm 26.9 25.3 10.2 35 9.4 ENE 9 13 5 7 1017.4 1016.2 0.0
27/05:00pm 28.0 25.1 9.8 32 10.3 E 15 22 8 12 1017.2 1016.0 0.0
27/04:30pm 28.9 25.4 10.1 31 10.7 E 19 30 10 16 1016.8 1015.5 0.0
27/04:00pm 29.5 26.4 11.5 33 10.5 ESE 19 28 10 15 1016.5 1015.2 0.0
27/03:30pm 30.1 27.1 12.1 33 10.6 ESE 19 28 10 15 1016.6 1015.3 0.0
27/03:00pm 30.7 28.5 12.1 32 11.0 ENE 15 20 8 11 1016.6 1015.3 0.0
27/02:30pm 29.6 26.3 11.6 33 10.5 NE 20 35 11 19 1016.7 1015.4 0.0
27/02:00pm 29.5 26.4 11.5 33 10.5 E 19 30 10 16 1016.9 1015.6 0.0
27/01:30pm 29.6 26.3 11.6 33 10.5 E 20 33 11 18 1017.3 1016.1 0.0
27/01:00pm 29.0 25.7 11.6 34 10.1 E 20 30 11 16 1017.8 1016.6 0.0
27/12:30pm 27.7 25.3 12.5 39 9.0 E 17 30 9 16 1018.4 1017.2 0.0
27/12:00pm 28.7 26.2 13.4 39 9.2 E 19 30 10 16 1018.9 1017.7 0.0
27/11:30am 27.6 25.1 13.5 41 8.4 E 19 30 10 16 1019.3 1018.1 0.0
27/11:00am 27.6 25.0 13.2 41 8.6 E 19 30 10 16 1019.7 1018.5 0.0
27/10:30am 26.1 22.9 11.8 41 8.3 E 20 32 11 17 1020.2 1018.9 0.0
27/10:00am 25.8 22.3 12.3 43 7.8 E 22 32 12 17 1020.8 1019.6 0.0
27/09:30am 25.3 23.7 13.8 49 6.8 ESE 15 24 8 13 1021.1 1019.9 0.0
27/09:00am 24.2 22.1 13.7 52 6.2 ESE 17 28 9 15 1021.1 1019.9 0.0
27/08:30am 23.1 20.4 13.0 53 5.9 ESE 19 26 10 14 1021.1 1019.9 0.0
27/08:00am 21.6 18.7 12.2 55 5.3 ESE 19 28 10 15 1021.0 1019.8 0.0
27/07:30am 20.6 18.2 11.5 56 5.1 ESE 15 26 8 14 1020.8 1019.6 0.0
27/07:00am 19.7 17.5 12.0 61 4.3 ESE 15 22 8 12 1020.6 1019.4 0.0
27/06:30am 17.7 16.9 11.7 68 3.3 ESE 7 13 4 7 1020.4 1019.2 0.0
27/06:00am 17.6 16.7 11.2 66 3.5 ESE 7 13 4 7 1020.1 1018.8 0.0
27/05:30am 18.6 17.3 11.4 63 4.0 ESE 9 11 5 6 1019.9 1018.7 0.0
27/05:00am 19.3 17.8 11.8 62 4.2 ESE 11 17 6 9 1019.7 1018.5 0.0
27/04:30am 19.3 18.2 11.8 62 4.2 ESE 9 19 5 10 1019.6 1018.4 0.0
27/04:00am 18.9 18.0 11.2 61 4.2 ESE 7 13 4 7 1019.4 1018.2 0.0
27/03:30am 19.0 18.1 10.8 59 4.5 ESE 6 7 3 4 1019.5 1018.3 0.0
27/03:00am 20.0 18.7 11.2 57 4.9 E 9 13 5 7 1019.5 1018.3 0.0
27/02:30am 21.2 19.1 11.2 53 5.6 E 13 22 7 12 1019.3 1018.1 0.0
27/02:00am 21.8 19.7 12.4 55 5.4 E 15 20 8 11 1019.3 1018.1 0.0
27/01:30am 21.8 20.1 12.4 55 5.4 E 13 19 7 10 1019.3 1018.1 0.0
27/01:00am 20.4 19.7 12.1 59 4.7 E 7 13 4 7 1019.4 1018.2 0.0
27/12:30am 20.9 20.5 12.3 58 4.9 ENE 6 7 3 4 1019.5 1018.3 0.0
27/12:00am 20.3 20.6 12.3 60 4.5 ENE 2 4 1 2 1019.8 1018.6 0.0

Other Formats:

Comma delimited format used in spreadsheet applications
http://www.bom.gov.au/fwo/IDQ60801/IDQ60801.94399.axf

JavaScript Object Notation format (JSON) in row-major order
http://www.bom.gov.au/fwo/IDQ60801/IDQ60801.94399.json